createdAt,value
2023-11-13T00:04:39.049Z,18.9
2023-11-13T00:10:31.633Z,18.9
2023-11-13T00:16:23.172Z,18.9
2023-11-13T00:22:15.957Z,18.9
2023-11-13T00:28:07.114Z,18.9
2023-11-13T00:33:59.626Z,18.9
2023-11-13T00:39:51.573Z,18.9
2023-11-13T00:45:46.881Z,18.9
2023-11-13T00:51:39.113Z,18.9
2023-11-13T00:57:31.362Z,18.9
2023-11-13T01:03:23.790Z,18.9
2023-11-13T01:09:16.710Z,18.9
2023-11-13T01:15:08.528Z,18.9
2023-11-13T01:20:59.525Z,19
2023-11-13T01:26:55.207Z,19.1
2023-11-13T01:32:47.367Z,19.4
2023-11-13T01:38:38.800Z,19.7
2023-11-13T01:44:30.704Z,20.1
2023-11-13T01:50:23.408Z,20.5
2023-11-13T01:56:15.271Z,21
2023-11-13T02:02:07.019Z,21.5
2023-11-13T02:07:59.314Z,22
2023-11-13T02:13:50.760Z,22.6
2023-11-13T02:19:42.776Z,23.2
2023-11-13T02:25:19.493Z,23.8
2023-11-13T02:31:10.823Z,24.4
2023-11-13T02:37:02.974Z,24.9
2023-11-13T02:42:54.497Z,25.3
2023-11-13T02:48:45.953Z,25.6
2023-11-13T02:54:38.514Z,25.7
2023-11-13T03:00:30.582Z,25.8
2023-11-13T03:06:22.692Z,25.9
2023-11-13T03:12:14.528Z,25.9
2023-11-13T03:17:50.750Z,26
2023-11-13T03:23:42.065Z,26
2023-11-13T03:29:19.045Z,26
2023-11-13T03:35:11.607Z,26.1
2023-11-13T03:40:47.890Z,26.1
2023-11-13T03:46:39.842Z,26.1
2023-11-13T03:52:32.041Z,26.1
2023-11-13T03:58:24.296Z,26.1
2023-11-13T04:04:17.134Z,26.1
2023-11-13T04:10:08.921Z,26.1
2023-11-13T04:15:59.957Z,26.1
2023-11-13T04:21:36.719Z,26.1
2023-11-13T04:27:13.450Z,26.1
2023-11-13T04:33:09.009Z,26.1
2023-11-13T04:38:45.924Z,26.1
2023-11-13T04:44:37.991Z,26.1
2023-11-13T04:50:29.681Z,26.1
2023-11-13T04:56:21.312Z,26.1
2023-11-13T05:02:17.441Z,26.1
2023-11-13T05:08:09.881Z,26.1
2023-11-13T05:14:01.925Z,26.1
2023-11-13T05:19:56.667Z,26.1
2023-11-13T05:25:48.727Z,26.1
2023-11-13T05:31:40.983Z,26.1
2023-11-13T05:37:33.416Z,26
2023-11-13T05:43:24.484Z,26
2023-11-13T05:49:19.176Z,25.9
2023-11-13T05:55:11.947Z,25.9
2023-11-13T06:01:04.408Z,25.9
2023-11-13T06:06:57.043Z,25.9
2023-11-13T06:12:51.981Z,25.9
2023-11-13T06:18:43.471Z,25.9
2023-11-13T06:24:19.224Z,25.9
2023-11-13T06:30:14.909Z,25.9
2023-11-13T06:36:09.111Z,25.9
2023-11-13T06:41:45.924Z,25.9
2023-11-13T06:47:39.167Z,30.3
2023-11-13T06:53:31.424Z,36.6
2023-11-13T06:59:23.029Z,34.9
2023-11-13T07:05:16.977Z,38.8
2023-11-13T07:10:51.917Z,38.4
2023-11-13T07:16:47.748Z,38.9
2023-11-13T07:22:40.554Z,39.1
2023-11-13T07:28:32.372Z,39.6
2023-11-13T07:34:25.037Z,40.2
2023-11-13T07:40:17.705Z,40.5
2023-11-13T07:46:10.663Z,40.4
2023-11-13T07:52:20.058Z,41.2
2023-11-13T07:58:13.946Z,41.9
2023-11-13T08:04:05.653Z,42.5
2023-11-13T08:10:06.227Z,43.1
2023-11-13T08:15:58.998Z,43.7
2023-11-13T08:21:50.171Z,44.1
2023-11-13T08:27:43.522Z,44.9
2023-11-13T08:33:39.094Z,45.5
2023-11-13T08:39:30.630Z,46.2
2023-11-13T08:45:21.510Z,46.8
2023-11-13T08:51:31.054Z,47.5
2023-11-13T08:57:22.518Z,48.1
2023-11-13T09:03:00.694Z,48.8
2023-11-13T09:08:56.817Z,49.4
2023-11-13T09:14:49.035Z,49.6
2023-11-13T09:20:25.799Z,49.1
2023-11-13T09:26:18.538Z,50.4
2023-11-13T09:32:09.563Z,51.2
2023-11-13T09:38:01.503Z,51.3
2023-11-13T09:43:54.706Z,52.1
2023-11-13T09:49:59.615Z,52.8
2023-11-13T09:56:00.346Z,53.4
2023-11-13T10:01:53.813Z,54
2023-11-13T10:07:49.899Z,54.6
2023-11-13T10:13:26.007Z,55.1
2023-11-13T10:19:23.050Z,55.6
2023-11-13T10:25:14.250Z,56.1
2023-11-13T10:30:54.653Z,56.6
2023-11-13T10:36:50.608Z,57
2023-11-13T10:42:48.017Z,57.6
2023-11-13T10:48:43.562Z,58
2023-11-13T11:00:15.566Z,58.9
2023-11-13T11:06:11.799Z,59.3
2023-11-13T11:12:09.568Z,59.7
2023-11-13T11:18:07.348Z,60.1
2023-11-13T11:24:00.259Z,60.4
2023-11-13T11:30:04.642Z,60.6
2023-11-13T11:35:41.755Z,60.9
2023-11-13T11:41:19.880Z,61.1
2023-11-13T11:47:24.951Z,61.3
2023-11-13T11:53:21.751Z,61.4
2023-11-13T11:59:12.214Z,61.6
2023-11-13T12:05:07.768Z,61.8
2023-11-13T12:10:59.670Z,61.9
2023-11-13T12:16:35.610Z,61.7
2023-11-13T12:22:42.920Z,61.7
2023-11-13T12:28:33.727Z,61.9
2023-11-13T12:34:26.263Z,61.9
2023-11-13T12:40:03.503Z,61.8
2023-11-13T12:45:59.685Z,61.8
2023-11-13T12:51:53.732Z,61.8
2023-11-13T12:57:46.569Z,61.6
2023-11-13T13:03:38.920Z,61.3
2023-11-13T13:09:35.350Z,61
2023-11-13T13:15:45.064Z,60.8
2023-11-13T13:21:37.978Z,60.6
2023-11-13T13:27:31.432Z,60.2
2023-11-13T13:33:24.572Z,59.7
2023-11-13T13:39:16.799Z,59.3
2023-11-13T13:45:08.031Z,58.7
2023-11-13T13:51:01.190Z,58.1
2023-11-13T13:56:56.399Z,57.3
2023-11-13T14:03:03.064Z,56.6
2023-11-13T14:08:56.628Z,54.1
2023-11-13T14:14:54.086Z,50.9
2023-11-13T14:21:02.639Z,48.2
2023-11-13T14:26:58.088Z,46.3
2023-11-13T14:32:20.141Z,44.9
2023-11-13T14:38:12.739Z,43.9
2023-11-13T14:43:51.612Z,43
2023-11-13T14:49:45.962Z,42.2
2023-11-13T14:55:43.556Z,41.4
2023-11-13T15:01:37.334Z,40.9
2023-11-13T15:07:30.681Z,40.3
2023-11-13T15:13:21.462Z,39.8
2023-11-13T15:19:23.024Z,39.4
2023-11-13T15:25:55.301Z,38.9
2023-11-13T15:31:33.719Z,38.4
2023-11-13T15:37:34.626Z,37.9
2023-11-13T15:43:26.752Z,37.6
2023-11-13T15:49:03.596Z,37.2
2023-11-13T15:54:40.811Z,36.8
2023-11-13T16:00:33.297Z,36.5
2023-11-13T16:06:29.471Z,36.2
2023-11-13T16:12:22.521Z,35.9
2023-11-13T16:18:15.963Z,35.6
2023-11-13T16:23:55.261Z,35.4
2023-11-13T16:29:47.442Z,34.4
2023-11-13T16:35:39.377Z,32.6
2023-11-13T16:41:14.347Z,30.7
2023-11-13T16:47:07.573Z,29.2
2023-11-13T16:53:01.508Z,28.1
2023-11-13T16:58:57.125Z,27.3
2023-11-13T17:04:50.766Z,26.7
2023-11-13T17:10:44.274Z,26.2
2023-11-13T17:16:20.531Z,25.8
2023-11-13T17:22:17.052Z,25.4
2023-11-13T17:27:56.472Z,25.1
2023-11-13T17:33:50.694Z,24.8
2023-11-13T17:39:43.159Z,24.6
2023-11-13T17:45:19.198Z,24.3
2023-11-13T17:50:55.758Z,24
2023-11-13T17:56:47.674Z,23.8
2023-11-13T18:02:42.755Z,23.6
2023-11-13T18:08:37.919Z,23.3
2023-11-13T18:14:14.858Z,23.2
2023-11-13T18:20:05.915Z,23.1
2023-11-13T18:25:41.623Z,22.9
2023-11-13T18:31:29.325Z,22.8
2023-11-13T18:37:21.066Z,22.6
2023-11-13T18:43:16.466Z,22.5
2023-11-13T18:49:09.453Z,22.4
2023-11-13T18:55:00.024Z,22.3
2023-11-13T19:00:51.865Z,22.2
2023-11-13T19:06:31.792Z,22.1
2023-11-13T19:12:29.005Z,22
2023-11-13T19:18:21.025Z,21.9
2023-11-13T19:24:13.792Z,21.9
2023-11-13T19:29:34.716Z,21.8
2023-11-13T19:35:10.985Z,21.8
2023-11-13T19:40:47.958Z,21.7
2023-11-13T19:46:18.979Z,21.6
2023-11-13T19:52:11.553Z,21.6
2023-11-13T19:57:59.901Z,21.5
2023-11-13T20:03:06.660Z,21.5
2023-11-13T20:08:30.530Z,21.4
2023-11-13T20:14:08.194Z,21.4
2023-11-13T20:20:12.541Z,21.4
2023-11-13T20:25:34.465Z,21.3
2023-11-13T20:31:33.931Z,21.3
2023-11-13T20:37:13.806Z,21.3
2023-11-13T20:42:49.149Z,21.3
2023-11-13T20:48:27.845Z,21.2
2023-11-13T20:54:03.395Z,21.2
2023-11-13T21:10:52.812Z,21.1
2023-11-13T21:16:44.961Z,21.1
2023-11-13T21:22:07.322Z,21
2023-11-13T21:27:58.997Z,21
2023-11-13T21:33:36.477Z,21
2023-11-13T21:39:13.046Z,21
2023-11-13T21:45:05.004Z,20.9
2023-11-13T21:50:25.977Z,20.9
2023-11-13T21:56:18.304Z,20.9
2023-11-13T22:01:56.579Z,20.9
2023-11-13T22:07:18.000Z,20.9
2023-11-13T22:13:10.096Z,20.9
2023-11-13T22:18:47.857Z,20.9
2023-11-13T22:24:24.181Z,20.9
2023-11-13T22:30:00.590Z,20.9
2023-11-13T22:35:37.592Z,20.8
2023-11-13T22:41:13.216Z,20.8
2023-11-13T22:46:50.491Z,20.8
2023-11-13T22:52:27.624Z,20.8
2023-11-13T22:57:48.345Z,20.8
2023-11-13T23:03:26.079Z,20.8
2023-11-13T23:09:03.011Z,20.8
2023-11-13T23:14:38.698Z,20.8
2023-11-13T23:20:16.323Z,20.8
2023-11-13T23:26:16.732Z,20.8
2023-11-13T23:31:52.945Z,20.8
2023-11-13T23:37:29.850Z,20.8
2023-11-13T23:43:06.913Z,20.8
2023-11-13T23:48:42.455Z,20.8
2023-11-13T23:54:19.033Z,20.8
2023-11-13T23:59:56.021Z,20.8
